Maersk Drummond — A8JF3 — position and weather

sailwx.info

Track history (hours):
 
Tides and Currents Weather Stations Pressure Air Temp Water Temp Dewpoint Dewpoint Depression Visibility Wind Speed Wind Dir Waves Ship Positions

Maersk Drummond

Last reported at 2016-Jun-26 04:31 UTC. Time now 2016-Jun-26 17:27 UTC.
Position N 30°40' E 122°43'.

Length 294 m; draft 8.5 m.

Type: Ship (hazmat cat A). MMSI: 636091082.

Date/timePositionNaut miles runAvg speedWind from/ knotsBaromVisibWave heightAir tempDewpointWater temp
2016-Jun-26 04:31N 30°40' E 122°43'0 0.0
2016-Jun-25 17:33N 30°40' E 122°43'10 9.9
2016-Jun-25 16:33N 30°35' E 122°34'24 1.6
2016-Jun-25 01:31N 30°36' E 122°05'3210.6
2016-Jun-24 22:31N 30°33' E 122°42'  
2016-Jun-21 13:18N 34°54' E 139°23'1418.0
2016-Jun-21 12:33N 35°02' E 139°37'1514.7
2016-Jun-21 11:33N 35°14' E 139°46'1110.7
2016-Jun-21 10:34N 35°24' E 139°41'1 0.5
2016-Jun-21 09:31N 35°24' E 139°41'0 0.0
2016-Jun-21 08:31N 35°24' E 139°41'0 0.0
2016-Jun-21 07:31N 35°24' E 139°41'0 0.0
2016-Jun-21 04:31N 35°24' E 139°41'0 0.0
2016-Jun-21 03:28N 35°24' E 139°41'0 0.0
2016-Jun-21 02:31N 35°24' E 139°41'0 0.0
2016-Jun-21 01:31N 35°24' E 139°41'0 0.0
2016-Jun-21 00:31N 35°24' E 139°41'0 0.0
2016-Jun-20 23:31N 35°24' E 139°41'1 1.0
2016-Jun-20 22:34N 35°23' E 139°41'1010.4
2016-Jun-20 21:34N 35°14' E 139°47'1110.5
2016-Jun-20 20:33N 35°03' E 139°45'1010.2
2016-Jun-20 19:33N 34°53' E 139°45'4213.7
2016-Jun-20 16:29N 35°08' E 140°33'1415.1
2016-Jun-20 15:33N 35°16' E 140°47'1515.5
2016-Jun-20 14:33N 35°24' E 141°04'1515.4
2016-Jun-20 13:34N 35°32' E 141°20'1615.2
2016-Jun-20 12:30N 35°41' E 141°36'  
Track history (hours):
 
Tides and Currents Weather Stations Pressure Air Temp Water Temp Dewpoint Dewpoint Depression Visibility Wind Speed Wind Dir Waves Ship Positions

Maersk Drummond

Last reported at 2016-Jun-26 04:31 UTC. Time now 2016-Jun-26 17:27 UTC.
Position N 30°40' E 122°43'.

Length 294 m; draft 8.5 m.

Type: Ship (hazmat cat A). MMSI: 636091082.

Date/timePositionNaut miles runAvg speedWind from/ knotsBaromVisibWave heightAir tempDewpointWater temp
2016-Jun-26 04:31N 30°40' E 122°43'0 0.0
2016-Jun-25 17:33N 30°40' E 122°43'10 9.9
2016-Jun-25 16:33N 30°35' E 122°34'24 1.6
2016-Jun-25 01:31N 30°36' E 122°05'3210.6
2016-Jun-24 22:31N 30°33' E 122°42'  
2016-Jun-21 13:18N 34°54' E 139°23'1418.0
2016-Jun-21 12:33N 35°02' E 139°37'1514.7
2016-Jun-21 11:33N 35°14' E 139°46'1110.7
2016-Jun-21 10:34N 35°24' E 139°41'1 0.5
2016-Jun-21 09:31N 35°24' E 139°41'0 0.0
2016-Jun-21 08:31N 35°24' E 139°41'0 0.0
2016-Jun-21 07:31N 35°24' E 139°41'0 0.0
2016-Jun-21 04:31N 35°24' E 139°41'0 0.0
2016-Jun-21 03:28N 35°24' E 139°41'0 0.0
2016-Jun-21 02:31N 35°24' E 139°41'0 0.0
2016-Jun-21 01:31N 35°24' E 139°41'0 0.0
2016-Jun-21 00:31N 35°24' E 139°41'0 0.0
2016-Jun-20 23:31N 35°24' E 139°41'1 1.0
2016-Jun-20 22:34N 35°23' E 139°41'1010.4
2016-Jun-20 21:34N 35°14' E 139°47'1110.5
2016-Jun-20 20:33N 35°03' E 139°45'1010.2
2016-Jun-20 19:33N 34°53' E 139°45'4213.7
2016-Jun-20 16:29N 35°08' E 140°33'1415.1
2016-Jun-20 15:33N 35°16' E 140°47'1515.5
2016-Jun-20 14:33N 35°24' E 141°04'1515.4
2016-Jun-20 13:34N 35°32' E 141°20'1615.2
2016-Jun-20 12:30N 35°41' E 141°36'  

Dump ship's entire track history